sensor_id;sensor_type;location;lat;lon;timestamp;temperature;humidity
18974;DHT22;9621;48.690;9.466;2023-04-07T00:01:53;5.10;90.70
18974;DHT22;9621;48.690;9.466;2023-04-07T00:04:19;5.00;90.80
18974;DHT22;9621;48.690;9.466;2023-04-07T00:06:47;5.00;91.00
18974;DHT22;9621;48.690;9.466;2023-04-07T00:09:13;5.00;91.20
18974;DHT22;9621;48.690;9.466;2023-04-07T00:11:40;4.90;91.30
18974;DHT22;9621;48.690;9.466;2023-04-07T00:14:08;4.90;91.40
18974;DHT22;9621;48.690;9.466;2023-04-07T00:16:35;4.90;91.80
18974;DHT22;9621;48.690;9.466;2023-04-07T00:19:02;4.90;91.70
18974;DHT22;9621;48.690;9.466;2023-04-07T00:21:29;4.90;91.80
18974;DHT22;9621;48.690;9.466;2023-04-07T00:23:56;4.80;92.00
18974;DHT22;9621;48.690;9.466;2023-04-07T00:26:23;4.80;92.10
18974;DHT22;9621;48.690;9.466;2023-04-07T00:28:53;4.70;92.20
18974;DHT22;9621;48.690;9.466;2023-04-07T00:31:21;4.70;92.20
18974;DHT22;9621;48.690;9.466;2023-04-07T00:33:48;4.70;92.90
18974;DHT22;9621;48.690;9.466;2023-04-07T00:36:15;4.70;92.80
18974;DHT22;9621;48.690;9.466;2023-04-07T00:38:42;4.60;93.30
18974;DHT22;9621;48.690;9.466;2023-04-07T00:41:09;4.60;93.00
18974;DHT22;9621;48.690;9.466;2023-04-07T00:43:36;4.60;93.00
18974;DHT22;9621;48.690;9.466;2023-04-07T00:46:03;4.60;93.00
18974;DHT22;9621;48.690;9.466;2023-04-07T00:48:32;4.60;93.10
18974;DHT22;9621;48.690;9.466;2023-04-07T00:50:59;4.60;93.80
18974;DHT22;9621;48.690;9.466;2023-04-07T00:53:25;4.50;93.50
18974;DHT22;9621;48.690;9.466;2023-04-07T00:55:52;4.60;93.80
18974;DHT22;9621;48.690;9.466;2023-04-07T00:58:19;4.50;93.70
18974;DHT22;9621;48.690;9.466;2023-04-07T01:00:49;4.60;93.80
18974;DHT22;9621;48.690;9.466;2023-04-07T01:03:21;4.60;94.40
18974;DHT22;9621;48.690;9.466;2023-04-07T01:05:54;4.60;94.40
18974;DHT22;9621;48.690;9.466;2023-04-07T01:08:31;4.60;94.70
18974;DHT22;9621;48.690;9.466;2023-04-07T01:11:04;4.50;95.00
18974;DHT22;9621;48.690;9.466;2023-04-07T01:13:36;4.60;95.10
18974;DHT22;9621;48.690;9.466;2023-04-07T01:16:08;4.60;95.00
18974;DHT22;9621;48.690;9.466;2023-04-07T01:18:37;4.50;95.10
18974;DHT22;9621;48.690;9.466;2023-04-07T01:21:10;4.60;95.50
18974;DHT22;9621;48.690;9.466;2023-04-07T01:23:51;4.60;96.20
18974;DHT22;9621;48.690;9.466;2023-04-07T01:26:19;4.60;96.60
18974;DHT22;9621;48.690;9.466;2023-04-07T01:29:03;4.60;95.50
18974;DHT22;9621;48.690;9.466;2023-04-07T01:31:39;4.60;96.70
18974;DHT22;9621;48.690;9.466;2023-04-07T01:34:08;4.60;96.00
18974;DHT22;9621;48.690;9.466;2023-04-07T01:36:36;4.60;96.00
18974;DHT22;9621;48.690;9.466;2023-04-07T01:39:04;4.70;95.70
18974;DHT22;9621;48.690;9.466;2023-04-07T01:41:32;4.70;95.80
18974;DHT22;9621;48.690;9.466;2023-04-07T01:44:00;4.70;95.70
18974;DHT22;9621;48.690;9.466;2023-04-07T01:46:28;4.70;95.90
18974;DHT22;9621;48.690;9.466;2023-04-07T01:48:57;4.80;95.90
18974;DHT22;9621;48.690;9.466;2023-04-07T01:51:25;4.70;96.10
18974;DHT22;9621;48.690;9.466;2023-04-07T01:53:53;4.70;96.00
18974;DHT22;9621;48.690;9.466;2023-04-07T01:56:20;4.80;95.90
18974;DHT22;9621;48.690;9.466;2023-04-07T01:58:46;4.80;96.00
18974;DHT22;9621;48.690;9.466;2023-04-07T02:01:14;4.80;96.10
18974;DHT22;9621;48.690;9.466;2023-04-07T02:03:44;4.80;96.20
18974;DHT22;9621;48.690;9.466;2023-04-07T02:06:18;4.80;96.60
18974;DHT22;9621;48.690;9.466;2023-04-07T02:08:50;4.80;97.10
18974;DHT22;9621;48.690;9.466;2023-04-07T02:11:20;4.80;97.00
18974;DHT22;9621;48.690;9.466;2023-04-07T02:13:47;4.80;96.80
18974;DHT22;9621;48.690;9.466;2023-04-07T02:16:16;4.80;96.50
18974;DHT22;9621;48.690;9.466;2023-04-07T02:18:45;4.80;96.60
18974;DHT22;9621;48.690;9.466;2023-04-07T02:21:15;4.80;96.70
18974;DHT22;9621;48.690;9.466;2023-04-07T02:23:43;4.90;97.00
18974;DHT22;9621;48.690;9.466;2023-04-07T02:26:10;4.90;96.80
18974;DHT22;9621;48.690;9.466;2023-04-07T02:28:36;4.80;96.80
18974;DHT22;9621;48.690;9.466;2023-04-07T02:31:03;4.90;97.20
18974;DHT22;9621;48.690;9.466;2023-04-07T02:33:31;4.90;97.00
18974;DHT22;9621;48.690;9.466;2023-04-07T02:35:57;4.90;97.00
18974;DHT22;9621;48.690;9.466;2023-04-07T02:38:26;4.80;97.00
18974;DHT22;9621;48.690;9.466;2023-04-07T02:40:53;4.90;97.40
18974;DHT22;9621;48.690;9.466;2023-04-07T02:43:20;4.80;97.20
18974;DHT22;9621;48.690;9.466;2023-04-07T02:45:47;4.80;97.30
18974;DHT22;9621;48.690;9.466;2023-04-07T02:48:13;4.80;97.40
18974;DHT22;9621;48.690;9.466;2023-04-07T02:50:40;4.80;97.40
18974;DHT22;9621;48.690;9.466;2023-04-07T02:53:07;4.80;97.40
18974;DHT22;9621;48.690;9.466;2023-04-07T02:55:36;4.70;97.50
18974;DHT22;9621;48.690;9.466;2023-04-07T02:58:02;4.80;97.70
18974;DHT22;9621;48.690;9.466;2023-04-07T03:00:30;4.70;97.50
18974;DHT22;9621;48.690;9.466;2023-04-07T03:02:56;4.70;97.60
18974;DHT22;9621;48.690;9.466;2023-04-07T03:05:23;4.70;97.70
18974;DHT22;9621;48.690;9.466;2023-04-07T03:07:50;4.70;98.30
18974;DHT22;9621;48.690;9.466;2023-04-07T03:10:17;4.70;98.20
18974;DHT22;9621;48.690;9.466;2023-04-07T03:12:45;4.70;98.40
18974;DHT22;9621;48.690;9.466;2023-04-07T03:15:12;4.70;98.70
18974;DHT22;9621;48.690;9.466;2023-04-07T03:17:39;4.70;98.50
18974;DHT22;9621;48.690;9.466;2023-04-07T03:20:07;4.70;98.70
18974;DHT22;9621;48.690;9.466;2023-04-07T03:22:34;4.70;98.80
18974;DHT22;9621;48.690;9.466;2023-04-07T03:25:01;4.70;98.70
18974;DHT22;9621;48.690;9.466;2023-04-07T03:27:28;4.70;98.80
18974;DHT22;9621;48.690;9.466;2023-04-07T03:29:56;4.70;98.80
18974;DHT22;9621;48.690;9.466;2023-04-07T03:32:23;4.70;99.10
18974;DHT22;9621;48.690;9.466;2023-04-07T03:34:50;4.70;98.90
18974;DHT22;9621;48.690;9.466;2023-04-07T03:37:17;4.70;99.00
18974;DHT22;9621;48.690;9.466;2023-04-07T03:39:44;4.70;99.00
18974;DHT22;9621;48.690;9.466;2023-04-07T03:42:11;4.80;99.10
18974;DHT22;9621;48.690;9.466;2023-04-07T03:44:38;4.80;99.10
18974;DHT22;9621;48.690;9.466;2023-04-07T03:47:07;4.80;99.20
18974;DHT22;9621;48.690;9.466;2023-04-07T03:49:33;4.80;99.50
18974;DHT22;9621;48.690;9.466;2023-04-07T03:52:03;4.80;99.40
18974;DHT22;9621;48.690;9.466;2023-04-07T03:54:29;4.80;99.60
18974;DHT22;9621;48.690;9.466;2023-04-07T03:56:56;4.80;99.60
18974;DHT22;9621;48.690;9.466;2023-04-07T03:59:23;4.90;99.60
18974;DHT22;9621;48.690;9.466;2023-04-07T04:01:50;4.90;99.70
18974;DHT22;9621;48.690;9.466;2023-04-07T04:04:19;4.90;99.90
18974;DHT22;9621;48.690;9.466;2023-04-07T04:06:45;4.80;99.90
18974;DHT22;9621;48.690;9.466;2023-04-07T04:09:12;4.80;99.90
18974;DHT22;9621;48.690;9.466;2023-04-07T04:11:39;4.80;99.90
18974;DHT22;9621;48.690;9.466;2023-04-07T04:14:06;4.80;99.90
18974;DHT22;9621;48.690;9.466;2023-04-07T04:16:33;4.70;99.90
18974;DHT22;9621;48.690;9.466;2023-04-07T04:19:00;4.80;99.90
18974;DHT22;9621;48.690;9.466;2023-04-07T04:21:29;4.70;99.90
18974;DHT22;9621;48.690;9.466;2023-04-07T04:23:56;4.70;99.90
18974;DHT22;9621;48.690;9.466;2023-04-07T04:26:22;4.80;99.90
18974;DHT22;9621;48.690;9.466;2023-04-07T04:28:50;4.70;99.90
18974;DHT22;9621;48.690;9.466;2023-04-07T04:31:17;4.70;99.90
18974;DHT22;9621;48.690;9.466;2023-04-07T04:33:44;4.70;99.90
18974;DHT22;9621;48.690;9.466;2023-04-07T04:36:11;4.70;99.90
18974;DHT22;9621;48.690;9.466;2023-04-07T04:38:39;4.80;99.90
18974;DHT22;9621;48.690;9.466;2023-04-07T04:41:06;4.70;99.90
18974;DHT22;9621;48.690;9.466;2023-04-07T04:43:33;4.70;99.90
18974;DHT22;9621;48.690;9.466;2023-04-07T04:46:00;4.70;99.90
18974;DHT22;9621;48.690;9.466;2023-04-07T04:48:27;4.70;99.90
18974;DHT22;9621;48.690;9.466;2023-04-07T04:50:54;4.60;99.90
18974;DHT22;9621;48.690;9.466;2023-04-07T04:53:21;4.60;99.90
18974;DHT22;9621;48.690;9.466;2023-04-07T04:55:50;4.60;99.90
18974;DHT22;9621;48.690;9.466;2023-04-07T04:58:17;4.50;99.90
18974;DHT22;9621;48.690;9.466;2023-04-07T05:00:44;4.50;99.90
18974;DHT22;9621;48.690;9.466;2023-04-07T05:03:11;4.50;99.90
18974;DHT22;9621;48.690;9.466;2023-04-07T05:05:38;4.50;99.90
18974;DHT22;9621;48.690;9.466;2023-04-07T05:08:05;4.50;99.90
18974;DHT22;9621;48.690;9.466;2023-04-07T05:10:32;4.40;99.90
18974;DHT22;9621;48.690;9.466;2023-04-07T05:13:00;4.50;99.90
18974;DHT22;9621;48.690;9.466;2023-04-07T05:15:27;4.40;99.90
18974;DHT22;9621;48.690;9.466;2023-04-07T05:17:54;4.40;99.90
18974;DHT22;9621;48.690;9.466;2023-04-07T05:20:21;4.50;99.90
18974;DHT22;9621;48.690;9.466;2023-04-07T05:22:48;4.50;99.90
18974;DHT22;9621;48.690;9.466;2023-04-07T05:25:15;4.50;99.90
18974;DHT22;9621;48.690;9.466;2023-04-07T05:27:41;4.50;99.90
18974;DHT22;9621;48.690;9.466;2023-04-07T05:30:10;4.60;99.90
18974;DHT22;9621;48.690;9.466;2023-04-07T05:32:37;4.70;99.90
18974;DHT22;9621;48.690;9.466;2023-04-07T05:35:05;4.60;99.90
18974;DHT22;9621;48.690;9.466;2023-04-07T05:37:32;4.70;99.90
18974;DHT22;9621;48.690;9.466;2023-04-07T05:39:59;4.70;99.90
18974;DHT22;9621;48.690;9.466;2023-04-07T05:42:26;4.70;99.90
18974;DHT22;9621;48.690;9.466;2023-04-07T05:44:53;4.70;99.90
18974;DHT22;9621;48.690;9.466;2023-04-07T05:47:21;4.80;99.90
18974;DHT22;9621;48.690;9.466;2023-04-07T05:49:48;4.80;99.90
18974;DHT22;9621;48.690;9.466;2023-04-07T05:52:15;4.80;99.90
18974;DHT22;9621;48.690;9.466;2023-04-07T05:54:42;4.80;99.90
18974;DHT22;9621;48.690;9.466;2023-04-07T05:57:09;4.90;99.90
18974;DHT22;9621;48.690;9.466;2023-04-07T05:59:36;4.90;99.90
18974;DHT22;9621;48.690;9.466;2023-04-07T06:02:04;5.00;99.90
18974;DHT22;9621;48.690;9.466;2023-04-07T06:04:32;5.10;99.90
18974;DHT22;9621;48.690;9.466;2023-04-07T06:07:00;5.00;99.90
18974;DHT22;9621;48.690;9.466;2023-04-07T06:09:27;5.20;99.90
18974;DHT22;9621;48.690;9.466;2023-04-07T06:11:53;5.20;99.90
18974;DHT22;9621;48.690;9.466;2023-04-07T06:14:21;5.30;99.90
18974;DHT22;9621;48.690;9.466;2023-04-07T06:16:48;5.40;99.90
18974;DHT22;9621;48.690;9.466;2023-04-07T06:19:15;5.40;99.90
18974;DHT22;9621;48.690;9.466;2023-04-07T06:21:43;5.50;99.90
18974;DHT22;9621;48.690;9.466;2023-04-07T06:24:10;5.50;99.90
18974;DHT22;9621;48.690;9.466;2023-04-07T06:26:38;5.70;99.90
18974;DHT22;9621;48.690;9.466;2023-04-07T06:29:05;5.60;99.90
18974;DHT22;9621;48.690;9.466;2023-04-07T06:31:32;5.70;99.90
18974;DHT22;9621;48.690;9.466;2023-04-07T06:33:59;5.80;99.90
18974;DHT22;9621;48.690;9.466;2023-04-07T06:36:26;5.80;99.90
18974;DHT22;9621;48.690;9.466;2023-04-07T06:38:54;5.90;99.90
18974;DHT22;9621;48.690;9.466;2023-04-07T06:41:21;6.00;99.90
18974;DHT22;9621;48.690;9.466;2023-04-07T06:43:49;6.00;99.90
18974;DHT22;9621;48.690;9.466;2023-04-07T06:46:16;6.20;99.90
18974;DHT22;9621;48.690;9.466;2023-04-07T06:48:44;6.30;99.90
18974;DHT22;9621;48.690;9.466;2023-04-07T06:51:11;6.40;99.90
18974;DHT22;9621;48.690;9.466;2023-04-07T06:53:38;6.50;99.90
18974;DHT22;9621;48.690;9.466;2023-04-07T06:56:09;6.70;99.90
18974;DHT22;9621;48.690;9.466;2023-04-07T06:58:36;6.90;99.90
18974;DHT22;9621;48.690;9.466;2023-04-07T07:01:04;7.20;99.90
18974;DHT22;9621;48.690;9.466;2023-04-07T07:03:31;7.30;99.90
18974;DHT22;9621;48.690;9.466;2023-04-07T07:05:59;7.50;99.90
18974;DHT22;9621;48.690;9.466;2023-04-07T07:08:26;7.70;99.90
18974;DHT22;9621;48.690;9.466;2023-04-07T07:10:54;7.90;99.90
18974;DHT22;9621;48.690;9.466;2023-04-07T07:13:24;8.20;99.90
18974;DHT22;9621;48.690;9.466;2023-04-07T07:15:51;8.40;99.90
18974;DHT22;9621;48.690;9.466;2023-04-07T07:18:19;8.50;99.90
18974;DHT22;9621;48.690;9.466;2023-04-07T07:20:46;8.70;99.90
18974;DHT22;9621;48.690;9.466;2023-04-07T07:23:13;8.90;99.90
18974;DHT22;9621;48.690;9.466;2023-04-07T07:25:40;9.00;99.90
18974;DHT22;9621;48.690;9.466;2023-04-07T07:28:07;9.20;99.90
18974;DHT22;9621;48.690;9.466;2023-04-07T07:30:38;9.40;99.90
18974;DHT22;9621;48.690;9.466;2023-04-07T07:33:06;9.50;99.90
18974;DHT22;9621;48.690;9.466;2023-04-07T07:35:33;9.60;99.90
18974;DHT22;9621;48.690;9.466;2023-04-07T07:38:02;9.60;99.90
18974;DHT22;9621;48.690;9.466;2023-04-07T07:40:29;9.70;99.90
18974;DHT22;9621;48.690;9.466;2023-04-07T07:42:56;9.70;99.90
18974;DHT22;9621;48.690;9.466;2023-04-07T07:45:23;9.80;99.90
18974;DHT22;9621;48.690;9.466;2023-04-07T07:47:51;10.00;99.90
18974;DHT22;9621;48.690;9.466;2023-04-07T07:50:19;10.30;99.90
18974;DHT22;9621;48.690;9.466;2023-04-07T07:52:45;10.90;99.90
18974;DHT22;9621;48.690;9.466;2023-04-07T07:55:13;11.70;99.90
18974;DHT22;9621;48.690;9.466;2023-04-07T07:57:40;12.50;99.90
18974;DHT22;9621;48.690;9.466;2023-04-07T08:00:08;13.30;99.50
18974;DHT22;9621;48.690;9.466;2023-04-07T08:02:35;14.10;97.90
18974;DHT22;9621;48.690;9.466;2023-04-07T08:05:05;14.80;97.20
18974;DHT22;9621;48.690;9.466;2023-04-07T08:07:32;15.40;95.00
18974;DHT22;9621;48.690;9.466;2023-04-07T08:09:59;15.70;93.60
18974;DHT22;9621;48.690;9.466;2023-04-07T08:12:26;15.70;93.30
18974;DHT22;9621;48.690;9.466;2023-04-07T08:14:52;15.80;93.30
18974;DHT22;9621;48.690;9.466;2023-04-07T08:17:20;16.00;93.10
18974;DHT22;9621;48.690;9.466;2023-04-07T08:19:47;16.40;93.10
18974;DHT22;9621;48.690;9.466;2023-04-07T08:22:15;17.00;92.40
18974;DHT22;9621;48.690;9.466;2023-04-07T08:24:44;17.40;90.30
18974;DHT22;9621;48.690;9.466;2023-04-07T08:27:12;17.80;90.00
18974;DHT22;9621;48.690;9.466;2023-04-07T08:29:38;18.20;89.50
18974;DHT22;9621;48.690;9.466;2023-04-07T08:32:05;18.70;87.80
18974;DHT22;9621;48.690;9.466;2023-04-07T08:34:32;19.00;85.10
18974;DHT22;9621;48.690;9.466;2023-04-07T08:36:59;19.40;83.70
18974;DHT22;9621;48.690;9.466;2023-04-07T08:39:28;19.70;81.00
18974;DHT22;9621;48.690;9.466;2023-04-07T08:41:55;20.00;78.30
18974;DHT22;9621;48.690;9.466;2023-04-07T08:44:24;20.20;77.70
18974;DHT22;9621;48.690;9.466;2023-04-07T08:46:55;20.40;73.50
18974;DHT22;9621;48.690;9.466;2023-04-07T08:49:23;20.40;72.00
18974;DHT22;9621;48.690;9.466;2023-04-07T08:51:53;20.80;73.00
18974;DHT22;9621;48.690;9.466;2023-04-07T08:54:20;21.10;71.50
18974;DHT22;9621;48.690;9.466;2023-04-07T08:56:50;21.40;69.00
18974;DHT22;9621;48.690;9.466;2023-04-07T08:59:17;21.60;67.80
18974;DHT22;9621;48.690;9.466;2023-04-07T09:01:50;21.80;68.60
18974;DHT22;9621;48.690;9.466;2023-04-07T09:04:17;22.10;68.00
18974;DHT22;9621;48.690;9.466;2023-04-07T09:06:44;22.10;65.20
18974;DHT22;9621;48.690;9.466;2023-04-07T09:09:11;21.80;63.40
18974;DHT22;9621;48.690;9.466;2023-04-07T09:11:39;21.30;64.20
18974;DHT22;9621;48.690;9.466;2023-04-07T09:14:07;20.70;65.70
18974;DHT22;9621;48.690;9.466;2023-04-07T09:16:34;20.30;64.80
18974;DHT22;9621;48.690;9.466;2023-04-07T09:19:01;19.90;66.20
18974;DHT22;9621;48.690;9.466;2023-04-07T09:21:46;19.60;66.30
18974;DHT22;9621;48.690;9.466;2023-04-07T09:24:21;19.20;65.20
18974;DHT22;9621;48.690;9.466;2023-04-07T09:26:48;18.80;66.30
18974;DHT22;9621;48.690;9.466;2023-04-07T09:29:20;18.50;68.30
18974;DHT22;9621;48.690;9.466;2023-04-07T09:31:47;18.20;67.60
18974;DHT22;9621;48.690;9.466;2023-04-07T09:34:26;18.00;69.10
18974;DHT22;9621;48.690;9.466;2023-04-07T09:36:54;17.70;68.80
18974;DHT22;9621;48.690;9.466;2023-04-07T09:39:21;17.60;70.20
18974;DHT22;9621;48.690;9.466;2023-04-07T09:41:48;17.40;69.90
18974;DHT22;9621;48.690;9.466;2023-04-07T09:44:16;17.20;70.10
18974;DHT22;9621;48.690;9.466;2023-04-07T09:46:51;17.00;71.10
18974;DHT22;9621;48.690;9.466;2023-04-07T09:49:18;16.80;70.50
18974;DHT22;9621;48.690;9.466;2023-04-07T09:51:55;16.70;70.90
18974;DHT22;9621;48.690;9.466;2023-04-07T09:54:32;16.60;70.50
18974;DHT22;9621;48.690;9.466;2023-04-07T09:57:00;16.40;70.40
18974;DHT22;9621;48.690;9.466;2023-04-07T09:59:27;16.20;70.60
18974;DHT22;9621;48.690;9.466;2023-04-07T10:01:56;16.00;71.80
18974;DHT22;9621;48.690;9.466;2023-04-07T10:04:23;15.90;73.50
18974;DHT22;9621;48.690;9.466;2023-04-07T10:06:51;16.00;73.10
18974;DHT22;9621;48.690;9.466;2023-04-07T10:09:19;16.00;73.50
18974;DHT22;9621;48.690;9.466;2023-04-07T10:11:46;16.10;72.70
18974;DHT22;9621;48.690;9.466;2023-04-07T10:14:14;16.20;73.10
18974;DHT22;9621;48.690;9.466;2023-04-07T10:16:42;16.20;72.60
18974;DHT22;9621;48.690;9.466;2023-04-07T10:19:11;16.10;72.00
18974;DHT22;9621;48.690;9.466;2023-04-07T10:21:40;16.10;71.70
18974;DHT22;9621;48.690;9.466;2023-04-07T10:24:26;16.00;71.30
18974;DHT22;9621;48.690;9.466;2023-04-07T10:26:59;15.90;71.70
18974;DHT22;9621;48.690;9.466;2023-04-07T10:29:30;15.80;72.60
18974;DHT22;9621;48.690;9.466;2023-04-07T10:32:00;15.80;71.90
18974;DHT22;9621;48.690;9.466;2023-04-07T10:34:56;15.80;72.60
18974;DHT22;9621;48.690;9.466;2023-04-07T10:37:24;15.80;71.60
18974;DHT22;9621;48.690;9.466;2023-04-07T10:42:52;16.10;72.20
18974;DHT22;9621;48.690;9.466;2023-04-07T10:45:56;16.30;72.70
18974;DHT22;9621;48.690;9.466;2023-04-07T10:48:25;16.50;69.80
18974;DHT22;9621;48.690;9.466;2023-04-07T10:51:22;16.40;70.60
18974;DHT22;9621;48.690;9.466;2023-04-07T10:54:20;16.40;70.30
18974;DHT22;9621;48.690;9.466;2023-04-07T10:57:10;16.40;68.70
18974;DHT22;9621;48.690;9.466;2023-04-07T10:59:40;16.40;68.80
18974;DHT22;9621;48.690;9.466;2023-04-07T11:02:31;16.40;70.50
18974;DHT22;9621;48.690;9.466;2023-04-07T11:04:59;16.50;70.30
18974;DHT22;9621;48.690;9.466;2023-04-07T11:07:45;16.70;71.20
18974;DHT22;9621;48.690;9.466;2023-04-07T11:10:13;16.80;69.90
18974;DHT22;9621;48.690;9.466;2023-04-07T11:12:41;16.80;71.30
18974;DHT22;9621;48.690;9.466;2023-04-07T11:15:19;16.80;70.90
18974;DHT22;9621;48.690;9.466;2023-04-07T11:17:46;16.80;68.10
18974;DHT22;9621;48.690;9.466;2023-04-07T11:20:13;16.60;69.30
18974;DHT22;9621;48.690;9.466;2023-04-07T11:22:40;16.40;68.70
18974;DHT22;9621;48.690;9.466;2023-04-07T11:25:21;16.10;68.70
18974;DHT22;9621;48.690;9.466;2023-04-07T11:27:52;15.90;69.20
18974;DHT22;9621;48.690;9.466;2023-04-07T11:30:20;15.70;69.30
18974;DHT22;9621;48.690;9.466;2023-04-07T11:32:48;15.60;70.00
18974;DHT22;9621;48.690;9.466;2023-04-07T11:35:15;15.40;70.90
18974;DHT22;9621;48.690;9.466;2023-04-07T11:37:42;15.40;71.70
18974;DHT22;9621;48.690;9.466;2023-04-07T11:40:10;15.40;71.40
18974;DHT22;9621;48.690;9.466;2023-04-07T11:42:43;15.40;71.70
18974;DHT22;9621;48.690;9.466;2023-04-07T11:45:16;15.40;70.60
18974;DHT22;9621;48.690;9.466;2023-04-07T11:47:44;15.40;71.20
18974;DHT22;9621;48.690;9.466;2023-04-07T11:50:11;15.30;70.80
18974;DHT22;9621;48.690;9.466;2023-04-07T11:52:42;15.30;71.10
18974;DHT22;9621;48.690;9.466;2023-04-07T11:55:18;15.30;71.30
18974;DHT22;9621;48.690;9.466;2023-04-07T11:57:47;15.50;70.70
18974;DHT22;9621;48.690;9.466;2023-04-07T12:00:16;15.60;71.90
18974;DHT22;9621;48.690;9.466;2023-04-07T12:02:43;15.70;70.90
18974;DHT22;9621;48.690;9.466;2023-04-07T12:05:10;15.80;70.30
18974;DHT22;9621;48.690;9.466;2023-04-07T12:07:37;15.80;70.70
18974;DHT22;9621;48.690;9.466;2023-04-07T12:10:19;15.90;71.30
18974;DHT22;9621;48.690;9.466;2023-04-07T12:12:48;16.00;69.10
18974;DHT22;9621;48.690;9.466;2023-04-07T12:15:15;16.10;69.90
18974;DHT22;9621;48.690;9.466;2023-04-07T12:17:44;16.10;69.80
18974;DHT22;9621;48.690;9.466;2023-04-07T12:20:12;16.10;68.90
18974;DHT22;9621;48.690;9.466;2023-04-07T12:22:39;16.10;69.00
18974;DHT22;9621;48.690;9.466;2023-04-07T12:25:07;16.10;68.70
18974;DHT22;9621;48.690;9.466;2023-04-07T12:27:34;16.10;68.40
18974;DHT22;9621;48.690;9.466;2023-04-07T12:30:03;16.10;68.20
18974;DHT22;9621;48.690;9.466;2023-04-07T12:32:30;16.10;68.60
18974;DHT22;9621;48.690;9.466;2023-04-07T12:34:57;16.00;68.80
18974;DHT22;9621;48.690;9.466;2023-04-07T12:37:24;16.00;69.10
18974;DHT22;9621;48.690;9.466;2023-04-07T12:39:51;16.00;68.80
18974;DHT22;9621;48.690;9.466;2023-04-07T12:42:19;16.00;68.90
18974;DHT22;9621;48.690;9.466;2023-04-07T12:44:46;16.00;67.90
18974;DHT22;9621;48.690;9.466;2023-04-07T12:47:14;15.90;68.40
18974;DHT22;9621;48.690;9.466;2023-04-07T12:49:41;15.90;68.40
18974;DHT22;9621;48.690;9.466;2023-04-07T12:52:08;15.80;68.10
18974;DHT22;9621;48.690;9.466;2023-04-07T12:54:34;15.80;68.30
18974;DHT22;9621;48.690;9.466;2023-04-07T12:57:02;15.60;67.60
18974;DHT22;9621;48.690;9.466;2023-04-07T12:59:29;15.40;68.00
18974;DHT22;9621;48.690;9.466;2023-04-07T13:01:56;15.30;67.80
18974;DHT22;9621;48.690;9.466;2023-04-07T13:04:25;15.10;67.40
18974;DHT22;9621;48.690;9.466;2023-04-07T13:06:54;15.00;68.00
18974;DHT22;9621;48.690;9.466;2023-04-07T13:09:21;14.80;68.70
18974;DHT22;9621;48.690;9.466;2023-04-07T13:11:48;14.50;68.90
18974;DHT22;9621;48.690;9.466;2023-04-07T13:14:15;14.30;68.90
18974;DHT22;9621;48.690;9.466;2023-04-07T13:16:42;14.10;69.70
18974;DHT22;9621;48.690;9.466;2023-04-07T13:19:09;13.80;70.30
18974;DHT22;9621;48.690;9.466;2023-04-07T13:21:38;13.50;70.90
18974;DHT22;9621;48.690;9.466;2023-04-07T13:24:05;13.20;72.00
18974;DHT22;9621;48.690;9.466;2023-04-07T13:26:31;12.90;72.60
18974;DHT22;9621;48.690;9.466;2023-04-07T13:28:58;12.70;73.30
18974;DHT22;9621;48.690;9.466;2023-04-07T13:31:25;12.50;74.00
18974;DHT22;9621;48.690;9.466;2023-04-07T13:33:53;12.30;74.70
18974;DHT22;9621;48.690;9.466;2023-04-07T13:36:20;12.10;74.60
18974;DHT22;9621;48.690;9.466;2023-04-07T13:38:48;12.00;75.10
18974;DHT22;9621;48.690;9.466;2023-04-07T13:41:15;11.80;76.40
18974;DHT22;9621;48.690;9.466;2023-04-07T13:43:42;11.70;76.00
18974;DHT22;9621;48.690;9.466;2023-04-07T13:46:11;11.60;76.50
18974;DHT22;9621;48.690;9.466;2023-04-07T13:48:40;11.40;77.10
18974;DHT22;9621;48.690;9.466;2023-04-07T13:51:08;11.30;77.00
18974;DHT22;9621;48.690;9.466;2023-04-07T13:53:35;11.20;77.70
18974;DHT22;9621;48.690;9.466;2023-04-07T13:56:04;11.10;77.90
18974;DHT22;9621;48.690;9.466;2023-04-07T13:58:33;11.00;78.80
18974;DHT22;9621;48.690;9.466;2023-04-07T14:01:00;10.90;79.00
18974;DHT22;9621;48.690;9.466;2023-04-07T14:03:27;10.80;79.50
18974;DHT22;9621;48.690;9.466;2023-04-07T14:05:54;10.60;80.30
18974;DHT22;9621;48.690;9.466;2023-04-07T14:08:25;10.50;80.60
18974;DHT22;9621;48.690;9.466;2023-04-07T14:10:52;10.40;81.10
18974;DHT22;9621;48.690;9.466;2023-04-07T14:13:20;10.30;81.60
18974;DHT22;9621;48.690;9.466;2023-04-07T14:15:48;10.20;82.40
18974;DHT22;9621;48.690;9.466;2023-04-07T14:18:15;10.10;82.60
18974;DHT22;9621;48.690;9.466;2023-04-07T14:20:42;10.10;83.00
18974;DHT22;9621;48.690;9.466;2023-04-07T14:23:09;9.90;83.40
18974;DHT22;9621;48.690;9.466;2023-04-07T14:25:37;9.90;83.50
18974;DHT22;9621;48.690;9.466;2023-04-07T14:28:03;9.90;83.80
18974;DHT22;9621;48.690;9.466;2023-04-07T14:30:34;9.90;84.30
18974;DHT22;9621;48.690;9.466;2023-04-07T14:33:03;10.00;85.10
18974;DHT22;9621;48.690;9.466;2023-04-07T14:35:30;10.00;84.30
18974;DHT22;9621;48.690;9.466;2023-04-07T14:37:56;10.00;84.70
18974;DHT22;9621;48.690;9.466;2023-04-07T14:40:23;10.10;85.00
18974;DHT22;9621;48.690;9.466;2023-04-07T14:42:50;10.20;85.00
18974;DHT22;9621;48.690;9.466;2023-04-07T14:45:17;10.20;85.20
18974;DHT22;9621;48.690;9.466;2023-04-07T14:47:45;10.30;85.20
18974;DHT22;9621;48.690;9.466;2023-04-07T14:50:12;10.40;85.20
18974;DHT22;9621;48.690;9.466;2023-04-07T14:52:39;10.40;85.20
18974;DHT22;9621;48.690;9.466;2023-04-07T14:55:06;10.60;85.10
18974;DHT22;9621;48.690;9.466;2023-04-07T14:57:33;10.70;85.00
18974;DHT22;9621;48.690;9.466;2023-04-07T15:00:01;10.70;84.90
18974;DHT22;9621;48.690;9.466;2023-04-07T15:02:28;10.90;85.00
18974;DHT22;9621;48.690;9.466;2023-04-07T15:04:58;11.00;84.80
18974;DHT22;9621;48.690;9.466;2023-04-07T15:07:25;11.10;85.00
18974;DHT22;9621;48.690;9.466;2023-04-07T15:09:53;11.20;84.70
18974;DHT22;9621;48.690;9.466;2023-04-07T15:12:20;11.30;84.70
18974;DHT22;9621;48.690;9.466;2023-04-07T15:14:50;11.40;85.00
18974;DHT22;9621;48.690;9.466;2023-04-07T15:17:17;11.60;85.00
18974;DHT22;9621;48.690;9.466;2023-04-07T15:19:46;11.70;84.30
18974;DHT22;9621;48.690;9.466;2023-04-07T15:22:14;11.70;84.30
18974;DHT22;9621;48.690;9.466;2023-04-07T15:24:41;11.80;83.90
18974;DHT22;9621;48.690;9.466;2023-04-07T15:27:08;12.00;83.50
18974;DHT22;9621;48.690;9.466;2023-04-07T15:29:36;12.10;83.40
18974;DHT22;9621;48.690;9.466;2023-04-07T15:32:05;12.10;83.20
18974;DHT22;9621;48.690;9.466;2023-04-07T15:34:32;12.20;83.80
18974;DHT22;9621;48.690;9.466;2023-04-07T15:36:59;12.30;83.00
18974;DHT22;9621;48.690;9.466;2023-04-07T15:39:28;12.50;82.90
18974;DHT22;9621;48.690;9.466;2023-04-07T15:41:55;12.50;82.10
18974;DHT22;9621;48.690;9.466;2023-04-07T15:44:22;12.60;81.60
18974;DHT22;9621;48.690;9.466;2023-04-07T15:46:49;12.60;81.40
18974;DHT22;9621;48.690;9.466;2023-04-07T15:49:16;12.70;80.90
18974;DHT22;9621;48.690;9.466;2023-04-07T15:51:46;12.80;81.20
18974;DHT22;9621;48.690;9.466;2023-04-07T15:54:13;12.80;81.00
18974;DHT22;9621;48.690;9.466;2023-04-07T15:56:42;12.80;80.90
18974;DHT22;9621;48.690;9.466;2023-04-07T15:59:09;12.80;80.10
18974;DHT22;9621;48.690;9.466;2023-04-07T16:01:36;12.80;80.10
18974;DHT22;9621;48.690;9.466;2023-04-07T16:04:03;12.60;79.90
18974;DHT22;9621;48.690;9.466;2023-04-07T16:06:30;12.50;80.00